Time;durP1;ratioP1;P1;durP2;ratioP2;P2;SDS_P1;SDS_P2;PMS_P1;PMS_P2;Temp;Humidity;BMP_temperature;BMP_pressure;BME280_temperature;BME280_humidity;BME280_pressure;Samples;Min_cycle;Max_cycle;Signal;HPM_P1;HPM_P2
2022/10/30 00:02:24;;;;;;;14.52;6.80;;;;;;;;;;4965490;28;20300;-63
2022/10/30 00:04:49;;;;;;;13.95;6.30;;;;;;;;;;4966864;28;20214;-63
2022/10/30 00:07:14;;;;;;;17.90;7.35;;;;;;;;;;4966694;28;20227;-63
2022/10/30 00:09:40;;;;;;;18.40;6.93;;;;;;;;;;4967731;28;20213;-63
2022/10/30 00:12:05;;;;;;;17.13;7.07;;;;;;;;;;4966130;28;20575;-63
2022/10/30 00:14:30;;;;;;;19.35;7.13;;;;;;;;;;4966662;28;20296;-63
2022/10/30 00:16:55;;;;;;;18.85;7.15;;;;;;;;;;4963377;28;20243;-63
2022/10/30 00:19:21;;;;;;;17.65;7.00;;;;;;;;;;4958264;28;20263;-63
2022/10/30 00:21:46;;;;;;;17.30;7.05;;;;;;;;;;4953648;28;20573;-63
2022/10/30 00:24:11;;;;;;;16.15;6.90;;;;;;;;;;4962757;28;20217;-63
2022/10/30 00:26:36;;;;;;;19.75;6.47;;;;;;;;;;4966455;28;20689;-63
2022/10/30 00:29:02;;;;;;;18.15;6.55;;;;;;;;;;4966876;28;20228;-63
2022/10/30 00:31:27;;;;;;;16.30;6.47;;;;;;;;;;4981687;28;20301;-63
2022/10/30 00:33:52;;;;;;;19.65;6.65;;;;;;;;;;4972092;28;20702;-63
2022/10/30 00:36:18;;;;;;;15.93;6.68;;;;;;;;;;4985689;28;20224;-63
2022/10/30 00:38:43;;;;;;;20.13;6.95;;;;;;;;;;4996075;28;20209;-63
2022/10/30 00:41:18;;;;;;;15.95;6.53;;;;;;;;;;4994771;28;20271;-63
2022/10/30 00:43:43;;;;;;;20.65;7.28;;;;;;;;;;5011443;28;20204;-63
2022/10/30 00:46:26;;;;;;;19.83;6.93;;;;;;;;;;4995590;28;20267;-63
2022/10/30 00:48:54;;;;;;;18.67;6.40;;;;;;;;;;4976832;28;20209;-63
2022/10/30 00:51:19;;;;;;;14.85;6.72;;;;;;;;;;4975712;28;20276;-63
2022/10/30 00:53:46;;;;;;;15.15;6.30;;;;;;;;;;4975760;28;20214;-63
2022/10/30 00:56:12;;;;;;;16.70;7.25;;;;;;;;;;4975876;28;20292;-63
2022/10/30 00:58:38;;;;;;;16.23;6.95;;;;;;;;;;4991340;28;20214;-63
2022/10/30 01:01:04;;;;;;;15.70;6.10;;;;;;;;;;4990213;28;20317;-63
2022/10/30 01:03:30;;;;;;;17.48;6.80;;;;;;;;;;4991307;28;20317;-63
2022/10/30 01:05:57;;;;;;;19.40;7.10;;;;;;;;;;4991112;28;20261;-63
2022/10/30 01:08:22;;;;;;;15.68;6.85;;;;;;;;;;4989845;28;20218;-63
2022/10/30 01:10:48;;;;;;;21.20;7.05;;;;;;;;;;5005430;28;20237;-63
2022/10/30 01:13:13;;;;;;;12.43;7.10;;;;;;;;;;5010240;28;20252;-63
2022/10/30 01:15:40;;;;;;;13.07;6.65;;;;;;;;;;5009865;28;20228;-63
2022/10/30 01:18:06;;;;;;;16.45;6.78;;;;;;;;;;5009862;28;20217;-63
2022/10/30 01:20:36;;;;;;;19.48;7.25;;;;;;;;;;4995431;28;20221;-63
2022/10/30 01:23:34;;;;;;;18.38;6.30;;;;;;;;;;4993928;28;20217;-63
2022/10/30 01:26:08;;;;;;;16.55;6.72;;;;;;;;;;5010506;28;20573;-63
2022/10/30 01:28:44;;;;;;;14.23;6.32;;;;;;;;;;5009624;28;20213;-63
2022/10/30 01:31:20;;;;;;;17.10;6.20;;;;;;;;;;5009773;28;20228;-63
2022/10/30 01:34:01;;;;;;;19.80;6.97;;;;;;;;;;5010200;28;20209;-63
2022/10/30 01:36:30;;;;;;;19.92;7.30;;;;;;;;;;5008785;28;20263;-63
2022/10/30 01:38:57;;;;;;;16.35;6.80;;;;;;;;;;5009961;28;20759;-63
2022/10/30 01:41:22;;;;;;;16.67;6.88;;;;;;;;;;4994399;28;20221;-63
2022/10/30 01:43:47;;;;;;;20.00;6.38;;;;;;;;;;4994313;28;20216;-63
2022/10/30 01:46:28;;;;;;;18.65;6.55;;;;;;;;;;5009565;28;20213;-63
2022/10/30 01:48:59;;;;;;;19.52;6.75;;;;;;;;;;4990504;28;20563;-63
2022/10/30 01:51:30;;;;;;;17.80;7.15;;;;;;;;;;4989128;28;20887;-62
2022/10/30 01:53:55;;;;;;;17.80;7.00;;;;;;;;;;4990155;28;20221;-63
2022/10/30 01:56:21;;;;;;;12.85;7.18;;;;;;;;;;4974744;28;20222;-63
2022/10/30 01:58:49;;;;;;;21.83;6.95;;;;;;;;;;4974711;28;20216;-63
2022/10/30 02:01:14;;;;;;;15.98;6.53;;;;;;;;;;4974845;28;20237;-63
2022/10/30 02:03:40;;;;;;;17.50;6.70;;;;;;;;;;4989588;28;20217;-63
2022/10/30 02:06:05;;;;;;;19.02;6.45;;;;;;;;;;4974730;28;20571;-63
2022/10/30 02:08:30;;;;;;;16.63;7.07;;;;;;;;;;4990051;28;20214;-63
2022/10/30 02:10:56;;;;;;;18.17;6.60;;;;;;;;;;4989559;28;20233;-63
2022/10/30 02:13:21;;;;;;;20.65;7.28;;;;;;;;;;5008949;28;20213;-63
2022/10/30 02:15:46;;;;;;;19.25;6.30;;;;;;;;;;5009565;28;20209;-63
2022/10/30 02:18:12;;;;;;;23.75;6.82;;;;;;;;;;5007631;28;20260;-63
2022/10/30 02:20:37;;;;;;;16.73;7.00;;;;;;;;;;5009558;28;20257;-63
2022/10/30 02:23:03;;;;;;;23.17;7.40;;;;;;;;;;4993593;28;20212;-64
2022/10/30 02:25:28;;;;;;;15.88;7.50;;;;;;;;;;4993497;28;20205;-63
2022/10/30 02:27:53;;;;;;;18.13;7.30;;;;;;;;;;4994253;28;20220;-63
2022/10/30 02:30:18;;;;;;;19.23;6.93;;;;;;;;;;4993683;28;20227;-63
2022/10/30 02:32:44;;;;;;;18.30;7.13;;;;;;;;;;4993222;28;20216;-63
2022/10/30 02:35:09;;;;;;;17.85;7.13;;;;;;;;;;4993558;28;20213;-63
2022/10/30 02:37:34;;;;;;;15.40;6.82;;;;;;;;;;4994154;28;20213;-63
2022/10/30 02:40:01;;;;;;;18.15;7.93;;;;;;;;;;4992850;28;20279;-63
2022/10/30 02:42:26;;;;;;;19.60;6.93;;;;;;;;;;4964695;28;20222;-63
2022/10/30 02:44:51;;;;;;;16.73;7.72;;;;;;;;;;4978819;28;20283;-63
2022/10/30 02:47:16;;;;;;;17.23;7.05;;;;;;;;;;4981609;28;21151;-63
2022/10/30 02:49:42;;;;;;;16.55;7.32;;;;;;;;;;4976285;28;20216;-63
2022/10/30 02:52:07;;;;;;;15.40;7.40;;;;;;;;;;4975706;28;20294;-63
2022/10/30 02:54:33;;;;;;;18.88;7.22;;;;;;;;;;4975661;28;20220;-63
2022/10/30 02:56:58;;;;;;;18.95;8.15;;;;;;;;;;4998313;28;20283;-63
2022/10/30 02:59:23;;;;;;;16.55;7.43;;;;;;;;;;4983272;28;20217;-63
2022/10/30 03:01:49;;;;;;;19.98;7.85;;;;;;;;;;4982850;28;20245;-63
2022/10/30 03:04:14;;;;;;;19.25;8.15;;;;;;;;;;4983254;28;20213;-63
2022/10/30 03:06:39;;;;;;;17.10;8.10;;;;;;;;;;4982297;28;20213;-63
2022/10/30 03:09:04;;;;;;;17.25;8.68;;;;;;;;;;4982477;28;20562;-63
2022/10/30 03:11:30;;;;;;;17.15;8.70;;;;;;;;;;4977553;28;20209;-63
2022/10/30 03:13:55;;;;;;;16.60;8.20;;;;;;;;;;4990467;28;20261;-63
2022/10/30 03:16:21;;;;;;;17.95;8.18;;;;;;;;;;4974160;28;20288;-63
2022/10/30 03:18:46;;;;;;;15.15;6.72;;;;;;;;;;4980743;28;20212;-63
2022/10/30 03:21:12;;;;;;;19.90;8.43;;;;;;;;;;4982084;28;20589;-63
2022/10/30 03:23:38;;;;;;;20.25;8.70;;;;;;;;;;4983226;28;20244;-63
2022/10/30 03:26:03;;;;;;;17.55;7.93;;;;;;;;;;4983073;28;20240;-63
2022/10/30 03:28:29;;;;;;;16.88;7.78;;;;;;;;;;4982488;28;20225;-63
2022/10/30 03:30:58;;;;;;;17.40;7.75;;;;;;;;;;4981080;28;20300;-63
2022/10/30 03:33:23;;;;;;;18.73;7.97;;;;;;;;;;4978898;28;20308;-63
2022/10/30 03:35:49;;;;;;;17.30;7.85;;;;;;;;;;4973451;28;20205;-63
2022/10/30 03:38:14;;;;;;;22.83;8.93;;;;;;;;;;4974853;28;20312;-63
2022/10/30 03:40:39;;;;;;;17.73;8.55;;;;;;;;;;4978729;28;20279;-63
2022/10/30 03:43:05;;;;;;;19.13;8.70;;;;;;;;;;4996965;28;20227;-63
2022/10/30 03:45:32;;;;;;;19.15;8.48;;;;;;;;;;4982448;28;20220;-63
2022/10/30 03:47:58;;;;;;;15.27;7.65;;;;;;;;;;4983268;28;20201;-63
2022/10/30 03:50:23;;;;;;;16.95;7.60;;;;;;;;;;4981777;28;20220;-63
2022/10/30 03:52:48;;;;;;;18.10;7.97;;;;;;;;;;4981465;28;20572;-63
2022/10/30 03:55:13;;;;;;;17.60;8.20;;;;;;;;;;4980875;28;20763;-63
2022/10/30 03:57:39;;;;;;;20.35;8.85;;;;;;;;;;4974695;28;20744;-63
2022/10/30 04:00:04;;;;;;;21.90;8.48;;;;;;;;;;4974814;28;20697;-63
2022/10/30 04:02:29;;;;;;;14.90;7.78;;;;;;;;;;4976498;28;20292;-63
2022/10/30 04:04:55;;;;;;;15.38;8.32;;;;;;;;;;4982353;28;20660;-63
2022/10/30 04:07:20;;;;;;;19.13;8.40;;;;;;;;;;4982319;28;20221;-63
2022/10/30 04:09:45;;;;;;;16.85;8.23;;;;;;;;;;4982627;28;20212;-63
2022/10/30 04:12:11;;;;;;;15.93;7.63;;;;;;;;;;4981391;28;20624;-63
2022/10/30 04:14:36;;;;;;;16.40;7.63;;;;;;;;;;4982960;28;20217;-63
2022/10/30 04:17:01;;;;;;;15.48;8.05;;;;;;;;;;4980715;28;20215;-63
2022/10/30 04:19:26;;;;;;;20.27;9.10;;;;;;;;;;4975952;28;21211;-63
2022/10/30 04:21:52;;;;;;;16.65;8.43;;;;;;;;;;4974709;28;20236;-63
2022/10/30 04:24:17;;;;;;;16.10;8.98;;;;;;;;;;4974536;28;20210;-63
2022/10/30 04:26:43;;;;;;;17.17;8.57;;;;;;;;;;4980834;28;20223;-63
2022/10/30 04:29:08;;;;;;;19.33;8.00;;;;;;;;;;4982147;28;20213;-63
2022/10/30 04:31:33;;;;;;;17.48;7.90;;;;;;;;;;4982114;28;20213;-63
2022/10/30 04:33:58;;;;;;;16.90;7.82;;;;;;;;;;4982760;28;20296;-63
2022/10/30 04:36:29;;;;;;;19.42;8.57;;;;;;;;;;4982419;28;20693;-63
2022/10/30 04:38:54;;;;;;;15.57;7.65;;;;;;;;;;4982313;28;20219;-63
2022/10/30 04:41:19;;;;;;;16.05;7.50;;;;;;;;;;4978538;28;20225;-63
2022/10/30 04:43:47;;;;;;;17.52;8.02;;;;;;;;;;4978019;28;20337;-63
2022/10/30 04:46:12;;;;;;;18.80;8.65;;;;;;;;;;4976884;28;20704;-63
2022/10/30 04:48:38;;;;;;;19.35;8.18;;;;;;;;;;4982820;28;20213;-63
2022/10/30 04:51:03;;;;;;;19.77;8.45;;;;;;;;;;4985511;28;20280;-63
2022/10/30 04:53:28;;;;;;;20.08;8.50;;;;;;;;;;4983830;28;20224;-63
2022/10/30 04:55:54;;;;;;;18.00;7.63;;;;;;;;;;4985952;28;20694;-63
2022/10/30 04:58:19;;;;;;;19.25;8.20;;;;;;;;;;4984050;28;20217;-63
2022/10/30 05:00:44;;;;;;;16.70;8.20;;;;;;;;;;4985348;28;20330;-63
2022/10/30 05:03:16;;;;;;;15.82;7.85;;;;;;;;;;4983185;28;20228;-63
2022/10/30 05:05:41;;;;;;;18.23;8.20;;;;;;;;;;4976945;28;20292;-63
2022/10/30 05:08:07;;;;;;;20.85;9.48;;;;;;;;;;4975314;28;20221;-63
2022/10/30 05:10:32;;;;;;;19.10;8.07;;;;;;;;;;4979947;28;20264;-63
2022/10/30 05:12:58;;;;;;;20.63;8.38;;;;;;;;;;5000375;28;20396;-63
2022/10/30 05:15:24;;;;;;;19.80;9.20;;;;;;;;;;4984305;28;20232;-63
2022/10/30 05:17:51;;;;;;;14.35;8.50;;;;;;;;;;4985441;28;21013;-63
2022/10/30 05:20:17;;;;;;;22.05;9.25;;;;;;;;;;5000280;28;20607;-63
2022/10/30 05:22:42;;;;;;;19.05;8.77;;;;;;;;;;4984693;28;20221;-63
2022/10/30 05:25:07;;;;;;;16.63;8.38;;;;;;;;;;4985323;28;20216;-63
2022/10/30 05:27:33;;;;;;;15.95;8.70;;;;;;;;;;4978248;28;20811;-63
2022/10/30 05:29:58;;;;;;;18.52;7.95;;;;;;;;;;4976379;28;20217;-63
2022/10/30 05:32:23;;;;;;;15.63;7.93;;;;;;;;;;4977202;28;20732;-63
2022/10/30 05:34:48;;;;;;;18.08;8.20;;;;;;;;;;4975228;28;20271;-63
2022/10/30 05:37:14;;;;;;;17.50;8.13;;;;;;;;;;4984932;28;20220;-63
2022/10/30 05:39:39;;;;;;;17.30;8.50;;;;;;;;;;4984512;28;20696;-63
2022/10/30 05:42:04;;;;;;;20.98;9.30;;;;;;;;;;4983717;28;20217;-63
2022/10/30 05:44:29;;;;;;;18.85;8.93;;;;;;;;;;4999611;28;20217;-63
2022/10/30 05:46:55;;;;;;;21.63;9.75;;;;;;;;;;5000172;28;20241;-63
2022/10/30 05:49:20;;;;;;;20.63;10.25;;;;;;;;;;4979671;28;20232;-63
2022/10/30 05:51:45;;;;;;;18.30;9.65;;;;;;;;;;4977366;28;20746;-63
2022/10/30 05:54:10;;;;;;;20.25;9.85;;;;;;;;;;4975260;28;20284;-63
2022/10/30 05:56:36;;;;;;;19.05;9.13;;;;;;;;;;4980683;28;20229;-63
2022/10/30 05:59:01;;;;;;;19.75;9.93;;;;;;;;;;4984074;28;20360;-63
2022/10/30 06:01:26;;;;;;;17.15;9.15;;;;;;;;;;4984758;28;20236;-63
2022/10/30 06:03:51;;;;;;;23.35;11.63;;;;;;;;;;4984025;28;20580;-63
2022/10/30 06:06:17;;;;;;;20.17;10.02;;;;;;;;;;4984434;28;20822;-63
2022/10/30 06:08:42;;;;;;;19.38;10.55;;;;;;;;;;4984351;28;20224;-63
2022/10/30 06:11:07;;;;;;;16.00;9.60;;;;;;;;;;4981568;28;20317;-63
2022/10/30 06:13:33;;;;;;;21.10;9.68;;;;;;;;;;4977015;28;20212;-63
2022/10/30 06:15:58;;;;;;;24.60;10.10;;;;;;;;;;4976029;28;20213;-63
2022/10/30 06:18:23;;;;;;;17.10;9.75;;;;;;;;;;4977351;28;20354;-63
2022/10/30 06:20:48;;;;;;;21.15;10.75;;;;;;;;;;4984355;28;20315;-63
2022/10/30 06:23:14;;;;;;;21.40;9.95;;;;;;;;;;4982595;28;20699;-63
2022/10/30 06:25:39;;;;;;;21.38;10.32;;;;;;;;;;4983772;28;20220;-63
2022/10/30 06:28:04;;;;;;;21.13;10.63;;;;;;;;;;4983939;28;20608;-63
2022/10/30 06:30:30;;;;;;;19.88;10.13;;;;;;;;;;4984067;28;20217;-63
2022/10/30 06:32:56;;;;;;;23.42;10.38;;;;;;;;;;4983382;28;20217;-63
2022/10/30 06:35:21;;;;;;;16.23;9.40;;;;;;;;;;4976810;28;20744;-63
2022/10/30 06:37:46;;;;;;;18.73;9.82;;;;;;;;;;4976425;28;20263;-63
2022/10/30 06:40:12;;;;;;;16.38;9.90;;;;;;;;;;4967498;28;20229;-63
2022/10/30 06:42:45;;;;;;;20.95;9.52;;;;;;;;;;4988289;28;20205;-62
2022/10/30 06:45:10;;;;;;;21.00;9.70;;;;;;;;;;4989694;28;20581;-62
2022/10/30 06:47:35;;;;;;;21.67;11.50;;;;;;;;;;5008093;28;20428;-62
2022/10/30 06:50:01;;;;;;;18.58;9.75;;;;;;;;;;4993482;28;20216;-62
2022/10/30 06:52:26;;;;;;;19.88;10.05;;;;;;;;;;4992803;28;20213;-62
2022/10/30 06:54:51;;;;;;;15.05;9.20;;;;;;;;;;4993656;28;20295;-62
2022/10/30 06:57:17;;;;;;;15.95;8.93;;;;;;;;;;4992943;28;20228;-63
2022/10/30 06:59:42;;;;;;;22.45;9.98;;;;;;;;;;4992890;28;20209;-63
2022/10/30 07:02:08;;;;;;;15.57;9.40;;;;;;;;;;4992936;28;20680;-63
2022/10/30 07:04:33;;;;;;;20.33;10.00;;;;;;;;;;4993091;28;20615;-63
2022/10/30 07:06:59;;;;;;;19.90;9.85;;;;;;;;;;4992248;28;20217;-63
2022/10/30 07:09:24;;;;;;;28.15;10.77;;;;;;;;;;4992033;28;20224;-63
2022/10/30 07:11:49;;;;;;;20.15;9.75;;;;;;;;;;4992818;28;20256;-63
2022/10/30 07:14:14;;;;;;;19.38;10.50;;;;;;;;;;4991062;28;20213;-63
2022/10/30 07:16:40;;;;;;;18.65;10.50;;;;;;;;;;4992186;28;20221;-62
2022/10/30 07:19:05;;;;;;;22.75;11.68;;;;;;;;;;4991928;28;20329;-62
2022/10/30 07:21:30;;;;;;;20.77;10.05;;;;;;;;;;4991363;28;20213;-62
2022/10/30 07:23:56;;;;;;;19.55;11.20;;;;;;;;;;4992429;28;20296;-62
2022/10/30 07:26:21;;;;;;;21.85;11.15;;;;;;;;;;4991641;28;20209;-61
2022/10/30 07:28:46;;;;;;;20.40;10.90;;;;;;;;;;4991180;28;20433;-62
2022/10/30 07:31:11;;;;;;;21.65;10.80;;;;;;;;;;4991509;28;20245;-63
2022/10/30 07:33:37;;;;;;;20.67;10.05;;;;;;;;;;4992258;28;20243;-62
2022/10/30 07:36:02;;;;;;;16.88;9.63;;;;;;;;;;4990995;28;20213;-63
2022/10/30 07:38:27;;;;;;;19.67;9.88;;;;;;;;;;4992197;28;20744;-62
2022/10/30 07:40:53;;;;;;;17.17;9.15;;;;;;;;;;4991925;28;20311;-62
2022/10/30 07:43:18;;;;;;;16.38;9.40;;;;;;;;;;5005727;28;20205;-62
2022/10/30 07:45:44;;;;;;;17.40;9.70;;;;;;;;;;4992122;28;20225;-62
2022/10/30 07:48:09;;;;;;;24.20;10.30;;;;;;;;;;4991617;28;20570;-63
2022/10/30 07:50:34;;;;;;;25.48;9.90;;;;;;;;;;4990058;28;20304;-63
2022/10/30 07:52:59;;;;;;;18.58;9.98;;;;;;;;;;4990543;28;20665;-62
2022/10/30 07:55:25;;;;;;;20.80;10.32;;;;;;;;;;4990702;28;20313;-63
2022/10/30 07:57:50;;;;;;;21.20;9.77;;;;;;;;;;4991953;28;20213;-62
2022/10/30 08:00:15;;;;;;;20.15;10.95;;;;;;;;;;4991264;28;20225;-63
2022/10/30 08:02:40;;;;;;;16.45;10.55;;;;;;;;;;4989820;28;20205;-63
2022/10/30 08:05:06;;;;;;;22.38;10.75;;;;;;;;;;4991492;28;20351;-63
2022/10/30 08:07:33;;;;;;;17.88;10.98;;;;;;;;;;4991915;28;20200;-62
2022/10/30 08:09:58;;;;;;;19.92;10.15;;;;;;;;;;4989737;28;20267;-62
2022/10/30 08:12:24;;;;;;;18.45;10.07;;;;;;;;;;4991290;28;20673;-63
2022/10/30 08:14:49;;;;;;;21.38;11.23;;;;;;;;;;4991946;28;20291;-62
2022/10/30 08:17:14;;;;;;;21.00;10.55;;;;;;;;;;4992464;28;20206;-63
2022/10/30 08:19:40;;;;;;;19.40;10.20;;;;;;;;;;4995095;28;20225;-63
2022/10/30 08:22:05;;;;;;;16.52;10.63;;;;;;;;;;4995406;28;20217;-62
2022/10/30 08:24:30;;;;;;;23.08;11.50;;;;;;;;;;4995698;28;20569;-61
2022/10/30 08:26:56;;;;;;;23.33;12.15;;;;;;;;;;4995906;28;20205;-62
2022/10/30 08:29:21;;;;;;;26.15;11.32;;;;;;;;;;5010720;28;20205;-62
2022/10/30 08:31:47;;;;;;;11.90;6.32;;;;;;;;;;4995164;28;20233;-64
2022/10/30 08:34:12;;;;;;;12.63;6.03;;;;;;;;;;4995728;28;20213;-64
2022/10/30 08:36:37;;;;;;;17.08;7.25;;;;;;;;;;5011507;28;20221;-63
2022/10/30 08:39:03;;;;;;;14.80;7.30;;;;;;;;;;4994911;28;20704;-64
2022/10/30 08:41:28;;;;;;;15.63;9.00;;;;;;;;;;4995855;28;20311;-63
2022/10/30 08:43:54;;;;;;;20.27;9.15;;;;;;;;;;4996217;28;20269;-63
2022/10/30 08:46:19;;;;;;;17.35;9.35;;;;;;;;;;4994879;28;20253;-62
2022/10/30 08:48:44;;;;;;;14.90;8.88;;;;;;;;;;4995934;28;20205;-64
2022/10/30 08:51:10;;;;;;;14.73;8.90;;;;;;;;;;4995520;28;20209;-63
2022/10/30 08:53:35;;;;;;;24.05;9.10;;;;;;;;;;5010293;28;20217;-64
2022/10/30 08:56:00;;;;;;;14.13;8.95;;;;;;;;;;4995466;28;20351;-64
2022/10/30 08:58:25;;;;;;;18.38;10.13;;;;;;;;;;4996134;28;20266;-64
2022/10/30 09:00:51;;;;;;;19.23;10.52;;;;;;;;;;4995078;28;20296;-63
2022/10/30 09:03:16;;;;;;;20.67;11.57;;;;;;;;;;4994750;28;20213;-64
2022/10/30 09:05:41;;;;;;;21.73;11.55;;;;;;;;;;4995076;28;20212;-63
2022/10/30 09:08:07;;;;;;;26.15;11.40;;;;;;;;;;4995343;28;20626;-64
2022/10/30 09:10:32;;;;;;;19.70;11.20;;;;;;;;;;4995440;28;20205;-64
2022/10/30 09:12:58;;;;;;;20.63;9.98;;;;;;;;;;4994838;28;20224;-64
2022/10/30 09:15:23;;;;;;;21.42;10.32;;;;;;;;;;4994458;28;20223;-62
2022/10/30 09:17:55;;;;;;;19.88;10.57;;;;;;;;;;4993728;28;20209;-63
2022/10/30 09:20:21;;;;;;;20.65;9.60;;;;;;;;;;5006122;28;20259;-62
2022/10/30 09:22:46;;;;;;;15.18;9.80;;;;;;;;;;4994962;28;20299;-62
2022/10/30 09:25:11;;;;;;;17.15;9.73;;;;;;;;;;4994500;28;20681;-64
2022/10/30 09:27:38;;;;;;;16.40;10.43;;;;;;;;;;4993116;28;20268;-63
2022/10/30 09:30:03;;;;;;;19.55;9.60;;;;;;;;;;4994684;28;20245;-66
2022/10/30 09:32:28;;;;;;;19.77;9.88;;;;;;;;;;4995183;28;20755;-65
2022/10/30 09:34:54;;;;;;;18.17;10.45;;;;;;;;;;4994302;28;20209;-64
2022/10/30 09:37:19;;;;;;;19.50;9.85;;;;;;;;;;4994774;28;20221;-64
2022/10/30 09:39:44;;;;;;;17.48;9.30;;;;;;;;;;4995092;28;20300;-64
2022/10/30 09:42:15;;;;;;;24.33;11.25;;;;;;;;;;4993790;28;20213;-66
2022/10/30 09:44:47;;;;;;;18.10;9.35;;;;;;;;;;5010321;28;20213;-64
2022/10/30 09:47:38;;;;;;;17.50;8.40;;;;;;;;;;4994361;28;20221;-64
2022/10/30 09:50:10;;;;;;;14.75;9.02;;;;;;;;;;4993259;28;20209;-64
2022/10/30 09:52:41;;;;;;;21.38;11.00;;;;;;;;;;4994310;28;20209;-63
2022/10/30 09:55:08;;;;;;;14.93;9.10;;;;;;;;;;5008493;28;20704;-66
2022/10/30 09:57:34;;;;;;;18.55;10.93;;;;;;;;;;4994323;28;20256;-64
2022/10/30 10:00:05;;;;;;;20.05;9.63;;;;;;;;;;4994789;28;20303;-64
2022/10/30 10:02:33;;;;;;;15.75;10.27;;;;;;;;;;4988874;28;20218;-65
2022/10/30 10:04:59;;;;;;;18.73;8.98;;;;;;;;;;4989936;28;20202;-64
2022/10/30 10:07:29;;;;;;;18.60;9.98;;;;;;;;;;5009212;28;20209;-64
2022/10/30 10:09:59;;;;;;;14.45;8.05;;;;;;;;;;5008924;28;20337;-64
2022/10/30 10:12:36;;;;;;;14.43;8.82;;;;;;;;;;5009124;28;20668;-64
2022/10/30 10:15:03;;;;;;;14.57;8.82;;;;;;;;;;4993940;28;20552;-63
2022/10/30 10:17:30;;;;;;;16.35;9.85;;;;;;;;;;5008500;28;20209;-65
2022/10/30 10:19:58;;;;;;;16.88;9.23;;;;;;;;;;5008991;28;20216;-64
2022/10/30 10:22:25;;;;;;;17.48;9.35;;;;;;;;;;5008744;28;20243;-64
2022/10/30 10:24:50;;;;;;;18.83;9.48;;;;;;;;;;5008209;28;20236;-64
2022/10/30 10:27:22;;;;;;;14.85;8.63;;;;;;;;;;5008931;28;20712;-64
2022/10/30 10:29:57;;;;;;;15.60;8.60;;;;;;;;;;5009221;28;20224;-63
2022/10/30 10:32:27;;;;;;;17.35;9.25;;;;;;;;;;4976212;28;20296;-64
2022/10/30 10:35:11;;;;;;;16.10;10.20;;;;;;;;;;4978483;28;20256;-64
2022/10/30 10:37:36;;;;;;;18.85;10.02;;;;;;;;;;4979418;28;20304;-64
2022/10/30 10:40:16;;;;;;;18.33;9.80;;;;;;;;;;4981652;28;20337;-63
2022/10/30 10:42:51;;;;;;;17.90;8.77;;;;;;;;;;5002197;28;20807;-64
2022/10/30 10:45:19;;;;;;;16.52;8.63;;;;;;;;;;4986825;28;20209;-65
2022/10/30 10:47:54;;;;;;;21.08;9.35;;;;;;;;;;4986140;28;20220;-64
2022/10/30 10:50:19;;;;;;;13.75;8.32;;;;;;;;;;5001609;28;20224;-64
2022/10/30 10:52:46;;;;;;;18.60;9.38;;;;;;;;;;4986436;28;20243;-64
2022/10/30 10:55:13;;;;;;;16.35;10.27;;;;;;;;;;4984859;28;20580;-64
2022/10/30 10:57:39;;;;;;;18.75;11.23;;;;;;;;;;4977777;28;20217;-64
2022/10/30 11:00:06;;;;;;;18.38;10.88;;;;;;;;;;4977196;28;20245;-65
2022/10/30 11:02:34;;;;;;;18.00;9.48;;;;;;;;;;4980647;28;20244;-64
2022/10/30 11:05:02;;;;;;;19.33;9.20;;;;;;;;;;4987191;28;20217;-64
2022/10/30 11:07:29;;;;;;;17.92;9.57;;;;;;;;;;5001286;28;20237;-64
2022/10/30 11:09:55;;;;;;;18.70;8.75;;;;;;;;;;4987191;28;20205;-63
2022/10/30 11:12:22;;;;;;;19.42;9.35;;;;;;;;;;4986392;28;20677;-64
2022/10/30 11:14:47;;;;;;;18.77;11.27;;;;;;;;;;4987146;28;20211;-63
2022/10/30 11:17:13;;;;;;;20.55;10.05;;;;;;;;;;4986483;28;20205;-65
2022/10/30 11:19:39;;;;;;;18.08;9.95;;;;;;;;;;4978358;28;20219;-64
2022/10/30 11:22:18;;;;;;;17.00;9.98;;;;;;;;;;4978497;28;20229;-64
2022/10/30 11:24:44;;;;;;;18.27;9.73;;;;;;;;;;4995536;28;20259;-64
2022/10/30 11:27:20;;;;;;;19.40;9.70;;;;;;;;;;4985642;28;20208;-64
2022/10/30 11:29:50;;;;;;;18.90;9.73;;;;;;;;;;5002203;28;20236;-63
2022/10/30 11:32:17;;;;;;;17.23;9.25;;;;;;;;;;4988530;28;20212;-64
2022/10/30 11:34:42;;;;;;;21.20;8.98;;;;;;;;;;5004321;28;20305;-64
2022/10/30 11:37:07;;;;;;;19.45;9.18;;;;;;;;;;5012113;28;20309;-64
2022/10/30 11:39:33;;;;;;;19.67;9.30;;;;;;;;;;5014337;28;20214;-64
2022/10/30 11:41:59;;;;;;;16.23;8.50;;;;;;;;;;4975887;28;20283;-64
2022/10/30 11:44:33;;;;;;;20.95;8.73;;;;;;;;;;4973138;28;20265;-64
2022/10/30 11:46:58;;;;;;;19.02;8.85;;;;;;;;;;4977169;28;20228;-64
2022/10/30 11:49:24;;;;;;;21.67;9.30;;;;;;;;;;4991868;28;20209;-64
2022/10/30 11:51:50;;;;;;;13.35;7.13;;;;;;;;;;4995406;28;20586;-64
2022/10/30 11:54:17;;;;;;;17.10;8.52;;;;;;;;;;5011429;28;20209;-64
2022/10/30 11:56:45;;;;;;;12.18;6.82;;;;;;;;;;5011231;28;20307;-64
2022/10/30 11:59:13;;;;;;;14.70;6.45;;;;;;;;;;5011446;28;20216;-64
2022/10/30 12:01:38;;;;;;;20.40;6.75;;;;;;;;;;4994596;28;20224;-64
2022/10/30 12:04:13;;;;;;;17.23;6.00;;;;;;;;;;5011508;28;20213;-64
2022/10/30 12:06:39;;;;;;;13.30;5.97;;;;;;;;;;4996677;28;20212;-64
2022/10/30 12:09:11;;;;;;;13.15;5.63;;;;;;;;;;4995267;28;20209;-65
2022/10/30 12:11:37;;;;;;;13.80;6.53;;;;;;;;;;5011834;28;20208;-64
2022/10/30 12:14:02;;;;;;;16.25;6.30;;;;;;;;;;4996199;28;20288;-65
2022/10/30 12:16:27;;;;;;;14.23;5.82;;;;;;;;;;5010857;28;20685;-64
2022/10/30 12:18:56;;;;;;;12.45;5.60;;;;;;;;;;5011618;28;20217;-64
2022/10/30 12:21:22;;;;;;;14.82;6.43;;;;;;;;;;4995863;28;20221;-66
2022/10/30 12:23:50;;;;;;;18.88;6.38;;;;;;;;;;5010647;28;20259;-66
2022/10/30 12:26:15;;;;;;;15.13;5.95;;;;;;;;;;4996106;28;20213;-65
2022/10/30 12:28:40;;;;;;;14.23;6.03;;;;;;;;;;4999630;28;20223;-65
2022/10/30 12:31:11;;;;;;;14.75;6.00;;;;;;;;;;4985556;28;20216;-66
2022/10/30 12:33:39;;;;;;;17.85;6.32;;;;;;;;;;4990074;28;20216;-65
2022/10/30 12:36:06;;;;;;;16.88;5.82;;;;;;;;;;4998041;28;20393;-65
2022/10/30 12:38:31;;;;;;;18.00;6.28;;;;;;;;;;5003710;28;20614;-65
2022/10/30 12:41:07;;;;;;;17.35;5.65;;;;;;;;;;4990099;28;20221;-65
2022/10/30 12:43:33;;;;;;;16.95;6.95;;;;;;;;;;4997195;28;20704;-64
2022/10/30 12:46:13;;;;;;;17.05;5.95;;;;;;;;;;5004241;28;20668;-64
2022/10/30 12:48:40;;;;;;;14.48;5.95;;;;;;;;;;4988971;28;20292;-64
2022/10/30 12:51:13;;;;;;;12.55;5.53;;;;;;;;;;5003447;28;20289;-63
2022/10/30 12:53:45;;;;;;;20.83;5.70;;;;;;;;;;5005004;28;20217;-63
2022/10/30 12:56:17;;;;;;;18.45;6.30;;;;;;;;;;5005149;28;20573;-63
2022/10/30 12:58:47;;;;;;;27.58;7.60;;;;;;;;;;5004652;28;20643;-63
2022/10/30 13:01:23;;;;;;;27.27;6.97;;;;;;;;;;5014847;28;20252;-62
2022/10/30 13:03:49;;;;;;;32.22;7.10;;;;;;;;;;5010101;28;20212;-61
2022/10/30 13:06:16;;;;;;;320.58;22.15;;;;;;;;;;5024218;28;20216;-62
2022/10/30 13:08:45;;;;;;;28.63;8.68;;;;;;;;;;5025012;28;20280;-62
2022/10/30 13:11:17;;;;;;;52.13;10.95;;;;;;;;;;4992212;28;20465;-61
2022/10/30 13:13:43;;;;;;;22.30;8.13;;;;;;;;;;4989674;28;20212;-61
2022/10/30 13:16:13;;;;;;;20.23;8.45;;;;;;;;;;5013962;28;20251;-62
2022/10/30 13:18:38;;;;;;;19.40;5.90;;;;;;;;;;5025283;28;20220;-62
2022/10/30 13:21:09;;;;;;;18.38;6.80;;;;;;;;;;5008845;28;20220;-61
2022/10/30 13:23:41;;;;;;;15.65;6.95;;;;;;;;;;5009488;28;20204;-62
2022/10/30 13:26:14;;;;;;;18.08;7.43;;;;;;;;;;4991292;28;20587;-62
2022/10/30 13:28:42;;;;;;;15.77;6.80;;;;;;;;;;5004991;28;20242;-61
2022/10/30 13:31:16;;;;;;;15.48;7.28;;;;;;;;;;5012786;28;20240;-61
2022/10/30 13:33:51;;;;;;;21.83;7.95;;;;;;;;;;5023639;28;20219;-61
2022/10/30 13:36:20;;;;;;;19.75;8.00;;;;;;;;;;5023836;28;20594;-61
2022/10/30 13:38:56;;;;;;;17.13;7.85;;;;;;;;;;5021832;28;20479;-61
2022/10/30 13:41:30;;;;;;;17.95;7.85;;;;;;;;;;4987250;28;20396;-61
2022/10/30 13:43:59;;;;;;;16.02;7.90;;;;;;;;;;4988178;28;20206;-61
2022/10/30 13:46:25;;;;;;;19.10;8.32;;;;;;;;;;4989353;28;20305;-61
2022/10/30 13:48:57;;;;;;;16.58;7.80;;;;;;;;;;4988671;28;20411;-61
2022/10/30 13:51:22;;;;;;;18.95;7.72;;;;;;;;;;5004267;28;20213;-61
2022/10/30 13:53:48;;;;;;;18.40;8.18;;;;;;;;;;4988963;28;20228;-61
2022/10/30 13:56:15;;;;;;;15.05;7.75;;;;;;;;;;5002796;28;20591;-61
2022/10/30 13:58:45;;;;;;;16.27;8.68;;;;;;;;;;5004616;28;20288;-61
2022/10/30 14:01:15;;;;;;;16.60;8.60;;;;;;;;;;4988113;28;20228;-62
2022/10/30 14:03:40;;;;;;;17.98;9.45;;;;;;;;;;4989397;28;20245;-61
2022/10/30 14:06:15;;;;;;;16.95;7.25;;;;;;;;;;4989105;28;20657;-62
2022/10/30 14:08:47;;;;;;;16.60;8.07;;;;;;;;;;5003133;28;20205;-61
2022/10/30 14:11:13;;;;;;;15.55;8.63;;;;;;;;;;5003507;28;20209;-62
2022/10/30 14:13:45;;;;;;;17.38;7.97;;;;;;;;;;4987913;28;20620;-61
2022/10/30 14:16:29;;;;;;;19.50;8.60;;;;;;;;;;4988011;28;20245;-61
2022/10/30 14:18:59;;;;;;;18.98;8.68;;;;;;;;;;4988890;28;20229;-61
2022/10/30 14:21:28;;;;;;;18.83;8.70;;;;;;;;;;5003302;28;20685;-61
2022/10/30 14:24:00;;;;;;;16.35;8.10;;;;;;;;;;4988329;28;20268;-61
2022/10/30 14:26:25;;;;;;;21.80;8.57;;;;;;;;;;5003702;28;20296;-61
2022/10/30 14:28:51;;;;;;;20.55;8.48;;;;;;;;;;4989407;28;20300;-61